Sopot, Poland
Current Conditions -  °F | °C
As of 3:00 PM on Saturday 20 Dec 2014 (Local Time) from EPGD Reporting Station
Rain Showers Rain Showers  
Wind Chill: 29°   Ceiling: 1300
Heat Index: 39°   Visibility: 5mi
Dew Point: 36°   Wind: 21mph
Humidity: 87%   Direction: 250°WSW
Pressure: 29.47"   Gusts: 37mph
Location:  54.44°N, 18.56°E
Report Text: EPGD 201300Z 25018G32KT 220V280 8000 -SHRA FEW005 BKN013CB 04/02 Q0998
Loading
Personal Weather Stations






























Interactive Weather Map New forecast layout! Learn more

10-Day Weather Forecast

Advertisements
Track Severe Weather on mobile